createdAt,value
2023-05-03T00:01:34.506Z,80.09
2023-05-03T00:04:02.185Z,80.45
2023-05-03T00:06:30.256Z,80.17
2023-05-03T00:08:59.226Z,79.05
2023-05-03T00:11:27.356Z,79.21
2023-05-03T00:13:55.042Z,79.35
2023-05-03T00:16:23.472Z,79.25
2023-05-03T00:18:51.207Z,80.52
2023-05-03T00:21:19.196Z,80.71
2023-05-03T00:23:46.825Z,80.77
2023-05-03T00:26:16.370Z,80.48
2023-05-03T00:28:44.188Z,80.84
2023-05-03T00:31:12.492Z,81.39
2023-05-03T00:33:40.674Z,81.55
2023-05-03T00:36:09.920Z,80.65
2023-05-03T00:38:38.568Z,80.31
2023-05-03T00:41:07.109Z,80.67
2023-05-03T00:43:38.301Z,79.82
2023-05-03T00:46:16.104Z,80.13
2023-05-03T00:48:46.122Z,79.36
2023-05-03T00:51:16.270Z,79.89
2023-05-03T00:53:44.293Z,80.22
2023-05-03T00:56:12.881Z,79.39
2023-05-03T00:58:42.003Z,79.74
2023-05-03T01:01:10.308Z,79.51
2023-05-03T01:03:42.211Z,79.70
2023-05-03T01:06:19.202Z,78.42
2023-05-03T01:08:53.217Z,79.03
2023-05-03T01:11:25.417Z,78.94
2023-05-03T01:14:00.725Z,77.13
2023-05-03T01:16:36.498Z,77.67
2023-05-03T01:19:08.413Z,76.97
2023-05-03T01:21:38.820Z,76.85
2023-05-03T01:24:12.422Z,76.62
2023-05-03T01:26:42.062Z,75.92
2023-05-03T01:29:09.737Z,74.27
2023-05-03T01:31:44.789Z,74.39
2023-05-03T01:34:22.937Z,74.66
2023-05-03T01:36:51.913Z,74.62
2023-05-03T01:39:23.708Z,74.71
2023-05-03T01:41:54.229Z,76.40
2023-05-03T01:44:23.793Z,76.89
2023-05-03T01:46:51.481Z,75.96
2023-05-03T01:49:19.423Z,77.46
2023-05-03T01:51:47.075Z,77.63
2023-05-03T01:54:15.077Z,77.86
2023-05-03T01:56:42.812Z,77.49
2023-05-03T01:59:11.816Z,77.64
2023-05-03T02:01:40.395Z,78.25
2023-05-03T02:04:08.687Z,78.80
2023-05-03T02:06:37.424Z,78.85
2023-05-03T02:09:05.131Z,79.58
2023-05-03T02:11:32.751Z,80.17
2023-05-03T02:14:00.925Z,79.49
2023-05-03T02:16:30.059Z,79.79
2023-05-03T02:18:59.446Z,79.56
2023-05-03T02:21:33.290Z,79.26
2023-05-03T02:24:01.003Z,79.90
2023-05-03T02:26:30.098Z,79.34
2023-05-03T02:28:58.030Z,79.23
2023-05-03T02:31:28.193Z,79.28
2023-05-03T02:33:59.151Z,79.97
2023-05-03T02:36:27.665Z,80.92
2023-05-03T02:38:55.771Z,79.82
2023-05-03T02:41:23.402Z,81.18
2023-05-03T02:43:52.138Z,80.64
2023-05-03T02:46:19.759Z,80.75
2023-05-03T02:48:47.516Z,81.09
2023-05-03T02:51:16.492Z,81.07
2023-05-03T02:53:44.484Z,81.21
2023-05-03T02:56:12.161Z,81.61
2023-05-03T02:58:40.163Z,81.79
2023-05-03T03:01:08.416Z,81.87
2023-05-03T03:03:36.190Z,81.55
2023-05-03T03:06:04.147Z,82.38
2023-05-03T03:08:33.189Z,81.75
2023-05-03T03:11:04.586Z,82.00
2023-05-03T03:13:33.599Z,82.16
2023-05-03T03:16:03.581Z,81.53
2023-05-03T03:18:31.769Z,82.10
2023-05-03T03:20:59.526Z,81.54
2023-05-03T03:23:27.241Z,82.39
2023-05-03T03:25:56.652Z,82.37
2023-05-03T03:28:25.984Z,82.46
2023-05-03T03:30:54.725Z,82.90
2023-05-03T03:33:26.648Z,82.96
2023-05-03T03:35:59.461Z,83.33
2023-05-03T03:38:33.534Z,82.86
2023-05-03T03:41:06.841Z,83.08
2023-05-03T03:43:35.431Z,82.22
2023-05-03T03:46:08.924Z,81.50
2023-05-03T03:48:36.827Z,81.96
2023-05-03T03:51:04.659Z,80.89
2023-05-03T03:53:39.281Z,81.99
2023-05-03T03:56:09.003Z,82.10
2023-05-03T03:58:36.860Z,83.03
2023-05-03T04:01:07.268Z,82.27
2023-05-03T04:03:35.453Z,82.26
2023-05-03T04:06:03.178Z,81.99
2023-05-03T04:08:31.870Z,82.83
2023-05-03T04:10:59.730Z,82.63
2023-05-03T04:13:28.708Z,83.24
2023-05-03T04:15:57.942Z,82.18
2023-05-03T04:18:26.801Z,82.51
2023-05-03T04:20:56.786Z,83.10
2023-05-03T04:23:24.511Z,83.00
2023-05-03T04:25:52.554Z,83.20
2023-05-03T04:28:22.018Z,83.64
2023-05-03T04:30:53.441Z,83.24
2023-05-03T04:33:25.703Z,83.33
2023-05-03T04:35:55.332Z,82.15
2023-05-03T04:38:23.243Z,81.75
2023-05-03T04:40:51.671Z,81.73
2023-05-03T04:43:19.473Z,81.67
2023-05-03T04:45:48.583Z,82.87
2023-05-03T04:48:22.123Z,81.20
2023-05-03T04:50:49.779Z,81.25
2023-05-03T04:53:20.092Z,80.79
2023-05-03T04:55:54.229Z,80.29
2023-05-03T04:58:22.718Z,79.61
2023-05-03T05:00:51.055Z,80.38
2023-05-03T05:03:27.583Z,79.33
2023-05-03T05:05:55.265Z,80.45
2023-05-03T05:08:22.939Z,79.62
2023-05-03T05:10:55.958Z,76.62
2023-05-03T05:13:28.083Z,78.08
2023-05-03T05:15:55.986Z,75.89
2023-05-03T05:18:23.707Z,75.69
2023-05-03T05:20:54.588Z,75.44
2023-05-03T05:23:23.403Z,74.12
2023-05-03T05:25:53.927Z,76.01
2023-05-03T05:28:22.711Z,76.42
2023-05-03T05:30:50.630Z,75.43
2023-05-03T05:33:19.280Z,74.95
2023-05-03T05:35:49.573Z,74.50
2023-05-03T05:38:21.930Z,75.63
2023-05-03T05:40:51.841Z,76.67
2023-05-03T05:43:20.477Z,77.37
2023-05-03T05:45:48.541Z,75.33
2023-05-03T05:48:16.803Z,73.99
2023-05-03T05:50:45.754Z,73.67
2023-05-03T05:53:15.746Z,73.49
2023-05-03T05:55:51.709Z,74.92
2023-05-03T05:58:19.919Z,72.01
2023-05-03T06:00:51.993Z,70.44
2023-05-03T06:03:20.212Z,69.50
2023-05-03T06:05:50.681Z,69.83
2023-05-03T06:08:18.590Z,67.82
2023-05-03T06:10:46.213Z,67.48
2023-05-03T06:13:15.261Z,67.08
2023-05-03T06:15:43.781Z,68.32
2023-05-03T06:18:11.948Z,66.52
2023-05-03T06:20:39.616Z,66.14
2023-05-03T06:23:07.769Z,66.00
2023-05-03T06:25:38.067Z,66.48
2023-05-03T06:28:05.843Z,66.34
2023-05-03T06:30:37.576Z,66.09
2023-05-03T06:33:13.580Z,65.76
2023-05-03T06:35:43.753Z,63.99
2023-05-03T06:38:12.262Z,65.30
2023-05-03T06:40:41.247Z,64.56
2023-05-03T06:43:09.126Z,64.36
2023-05-03T06:45:45.140Z,64.33
2023-05-03T06:48:13.108Z,63.51
2023-05-03T06:50:41.243Z,63.00
2023-05-03T06:53:09.683Z,62.51
2023-05-03T06:55:37.267Z,62.03
2023-05-03T06:58:10.306Z,60.68
2023-05-03T07:00:39.096Z,60.17
2023-05-03T07:03:08.283Z,61.51
2023-05-03T07:05:36.662Z,60.38
2023-05-03T07:08:04.593Z,59.51
2023-05-03T07:10:55.166Z,59.86
2023-05-03T07:13:22.801Z,58.28
2023-05-03T07:15:51.460Z,56.98
2023-05-03T07:18:20.471Z,57.33
2023-05-03T07:20:48.744Z,55.93
2023-05-03T07:23:16.985Z,53.68
2023-05-03T07:25:45.634Z,52.86
2023-05-03T07:28:13.636Z,50.99
2023-05-03T07:30:41.352Z,50.26
2023-05-03T07:33:09.421Z,50.81
2023-05-03T07:35:38.390Z,48.48
2023-05-03T07:38:06.515Z,47.01
2023-05-03T07:40:34.881Z,47.93
2023-05-03T07:43:03.149Z,48.91
2023-05-03T07:45:31.699Z,49.46
2023-05-03T07:47:59.530Z,47.94
2023-05-03T07:50:27.548Z,47.30
2023-05-03T07:52:56.524Z,48.01
2023-05-03T07:55:25.203Z,48.83
2023-05-03T07:57:58.279Z,47.44
2023-05-03T08:00:26.265Z,49.11
2023-05-03T08:02:54.149Z,49.98
2023-05-03T08:05:23.606Z,48.94
2023-05-03T08:07:52.560Z,50.65
2023-05-03T08:10:22.249Z,50.66
2023-05-03T08:12:53.341Z,49.01
2023-05-03T08:15:20.947Z,50.26
2023-05-03T08:17:49.405Z,50.04
2023-05-03T08:20:17.007Z,50.77
2023-05-03T08:22:45.616Z,48.53
2023-05-03T08:25:13.283Z,48.98
2023-05-03T08:27:42.548Z,50.74
2023-05-03T08:30:10.893Z,49.89
2023-05-03T08:32:38.479Z,49.88
2023-05-03T08:35:07.312Z,50.07
2023-05-03T08:37:40.121Z,49.34
2023-05-03T08:40:10.011Z,50.35
2023-05-03T08:42:42.425Z,49.68
2023-05-03T08:45:12.847Z,49.42
2023-05-03T08:47:41.927Z,48.52
2023-05-03T08:50:11.456Z,48.86
2023-05-03T08:52:41.439Z,50.54
2023-05-03T08:55:10.770Z,50.10
2023-05-03T08:57:38.481Z,48.77
2023-05-03T09:00:10.828Z,47.34
2023-05-03T09:02:39.943Z,47.80
2023-05-03T09:05:35.963Z,46.74
2023-05-03T09:08:05.297Z,47.41
2023-05-03T09:10:33.986Z,46.54
2023-05-03T09:13:03.161Z,48.90
2023-05-03T09:15:32.406Z,47.34
2023-05-03T09:18:12.607Z,47.17
2023-05-03T09:20:41.834Z,44.90
2023-05-03T09:23:10.470Z,45.75
2023-05-03T09:25:43.185Z,44.59
2023-05-03T09:28:10.990Z,45.49
2023-05-03T09:30:40.347Z,43.61
2023-05-03T09:33:08.482Z,43.25
2023-05-03T09:35:36.130Z,44.01
2023-05-03T09:38:03.990Z,41.64
2023-05-03T09:40:31.733Z,43.53
2023-05-03T09:43:06.466Z,46.07
2023-05-03T09:45:34.335Z,45.10
2023-05-03T09:48:05.112Z,45.39
2023-05-03T09:50:33.847Z,45.78
2023-05-03T09:53:05.850Z,45.16
2023-05-03T09:55:34.658Z,45.44
2023-05-03T09:58:06.701Z,45.36
2023-05-03T10:00:38.377Z,47.32
2023-05-03T10:03:10.517Z,45.70
2023-05-03T10:05:45.729Z,46.06
2023-05-03T10:08:19.421Z,43.63
2023-05-03T10:10:51.054Z,44.24
2023-05-03T10:13:20.044Z,44.94
2023-05-03T10:15:49.933Z,43.06
2023-05-03T10:18:21.652Z,43.95
2023-05-03T10:20:54.732Z,44.91
2023-05-03T10:23:22.361Z,47.53
2023-05-03T10:26:15.118Z,46.14
2023-05-03T10:28:43.916Z,44.81
2023-05-03T10:31:46.544Z,40.93
2023-05-03T10:34:26.037Z,43.00
2023-05-03T10:36:54.257Z,44.15
2023-05-03T10:39:22.367Z,42.79
2023-05-03T10:42:00.348Z,41.89
2023-05-03T10:44:29.320Z,42.16
2023-05-03T10:46:57.014Z,41.46
2023-05-03T10:49:27.211Z,42.28
2023-05-03T10:51:56.079Z,42.74
2023-05-03T10:54:24.515Z,41.42
2023-05-03T10:56:54.426Z,41.97
2023-05-03T10:59:23.255Z,40.05
2023-05-03T11:01:53.375Z,40.88
2023-05-03T11:04:34.852Z,40.56
2023-05-03T11:07:02.914Z,39.15
2023-05-03T11:09:36.971Z,40.34
2023-05-03T11:12:05.979Z,40.66
2023-05-03T11:14:33.594Z,41.67
2023-05-03T11:17:01.923Z,40.52
2023-05-03T11:19:31.264Z,39.97
2023-05-03T11:21:58.971Z,40.38
2023-05-03T11:24:26.792Z,39.91
2023-05-03T11:26:54.473Z,39.22
2023-05-03T11:29:22.433Z,38.56
2023-05-03T11:31:51.207Z,38.94
2023-05-03T11:34:19.345Z,39.19
2023-05-03T11:36:49.576Z,41.61
2023-05-03T11:39:18.963Z,40.09
2023-05-03T11:42:03.213Z,42.15
2023-05-03T11:44:31.265Z,39.84
2023-05-03T11:46:59.662Z,42.23
2023-05-03T11:49:27.508Z,41.21
2023-05-03T11:51:56.817Z,38.88
2023-05-03T11:54:27.338Z,38.68
2023-05-03T11:56:57.505Z,40.18
2023-05-03T11:59:35.920Z,42.18
2023-05-03T12:02:04.229Z,39.41
2023-05-03T12:04:32.818Z,40.56
2023-05-03T12:07:03.411Z,40.26
2023-05-03T12:09:32.511Z,41.07
2023-05-03T12:12:02.405Z,40.55
2023-05-03T12:14:51.359Z,41.47
2023-05-03T12:17:36.879Z,40.09
2023-05-03T12:22:59.127Z,40.44
2023-05-03T12:25:29.189Z,39.78
2023-05-03T12:28:18.545Z,40.85
2023-05-03T12:30:48.789Z,39.66
2023-05-03T12:33:21.126Z,38.99
2023-05-03T12:35:53.452Z,39.17
2023-05-03T12:38:25.076Z,40.00
2023-05-03T12:40:54.825Z,37.38
2023-05-03T12:43:22.781Z,36.84
2023-05-03T12:46:02.067Z,36.97
2023-05-03T12:48:38.507Z,35.88
2023-05-03T12:51:19.151Z,37.31
2023-05-03T12:53:54.445Z,38.59
2023-05-03T12:56:24.781Z,37.28
2023-05-03T12:59:14.928Z,38.42
2023-05-03T13:06:44.862Z,36.10
2023-05-03T13:09:20.571Z,35.87
2023-05-03T13:11:50.974Z,35.10
2023-05-03T13:14:18.990Z,36.33
2023-05-03T13:16:46.822Z,35.53
2023-05-03T13:19:14.823Z,38.17
2023-05-03T13:21:42.606Z,34.60
2023-05-03T13:24:10.313Z,35.81
2023-05-03T13:26:39.816Z,33.85
2023-05-03T13:29:07.428Z,35.53
2023-05-03T13:31:35.559Z,34.41
2023-05-03T13:34:03.148Z,36.47
2023-05-03T13:36:33.559Z,35.71
2023-05-03T13:39:01.851Z,36.03
2023-05-03T13:41:29.605Z,33.46
2023-05-03T13:43:58.510Z,34.64
2023-05-03T13:46:26.244Z,33.98
2023-05-03T13:48:56.706Z,33.38
2023-05-03T13:51:25.601Z,34.25
2023-05-03T13:53:53.350Z,32.82
2023-05-03T13:56:21.862Z,34.27
2023-05-03T13:58:49.611Z,33.28
2023-05-03T14:01:19.295Z,33.95
2023-05-03T14:03:47.258Z,33.04
2023-05-03T14:06:15.188Z,33.56
2023-05-03T14:08:43.078Z,33.53
2023-05-03T14:11:13.874Z,33.56
2023-05-03T14:13:55.607Z,34.16
2023-05-03T14:18:58.388Z,33.39
2023-05-03T14:21:26.369Z,34.64
2023-05-03T14:23:55.854Z,33.64
2023-05-03T14:26:26.237Z,32.73
2023-05-03T14:28:53.997Z,33.19
2023-05-03T14:31:22.456Z,32.94
2023-05-03T14:33:51.986Z,30.72
2023-05-03T14:36:19.801Z,32.04
2023-05-03T14:38:47.820Z,32.08
2023-05-03T14:41:15.585Z,31.88
2023-05-03T14:43:43.396Z,32.35
2023-05-03T14:46:11.301Z,33.64
2023-05-03T14:48:39.263Z,32.83
2023-05-03T14:51:08.432Z,32.29
2023-05-03T14:53:36.797Z,32.70
2023-05-03T14:56:04.953Z,31.22
2023-05-03T14:58:33.485Z,31.64
2023-05-03T15:01:01.209Z,32.92
2023-05-03T15:03:29.066Z,30.96
2023-05-03T15:05:57.490Z,30.21
2023-05-03T15:08:27.506Z,30.66
2023-05-03T15:10:55.396Z,30.96
2023-05-03T15:13:24.213Z,30.56
2023-05-03T15:15:52.332Z,31.97
2023-05-03T15:18:20.355Z,30.85
2023-05-03T15:20:48.213Z,30.31
2023-05-03T15:23:15.947Z,30.08
2023-05-03T15:25:44.924Z,28.97
2023-05-03T15:28:12.994Z,30.84
2023-05-03T15:30:40.816Z,30.79
2023-05-03T15:33:11.079Z,31.74
2023-05-03T15:35:41.242Z,29.20
2023-05-03T15:38:09.858Z,30.66
2023-05-03T15:40:37.736Z,30.64
2023-05-03T15:43:06.911Z,31.67
2023-05-03T15:45:34.667Z,31.20
2023-05-03T15:48:02.968Z,31.57
2023-05-03T15:50:30.843Z,32.14
2023-05-03T15:52:58.791Z,32.45
2023-05-03T15:55:26.899Z,31.25
2023-05-03T15:57:57.075Z,31.49
2023-05-03T16:00:28.158Z,29.87
2023-05-03T16:02:57.261Z,31.55
2023-05-03T16:05:25.370Z,30.70
2023-05-03T16:07:53.163Z,30.69
2023-05-03T16:10:23.430Z,30.53
2023-05-03T16:12:52.481Z,29.58
2023-05-03T16:15:20.534Z,32.93
2023-05-03T16:17:49.979Z,29.94
2023-05-03T16:20:17.863Z,29.93
2023-05-03T16:22:47.946Z,30.03
2023-05-03T16:25:16.408Z,30.07
2023-05-03T16:27:44.707Z,29.44
2023-05-03T16:30:13.201Z,30.85
2023-05-03T16:32:41.639Z,28.94
2023-05-03T16:35:11.036Z,29.97
2023-05-03T16:37:38.788Z,28.65
2023-05-03T16:40:11.696Z,26.55
2023-05-03T16:42:40.146Z,26.22
2023-05-03T16:45:10.606Z,25.03
2023-05-03T16:47:38.872Z,24.06
2023-05-03T16:50:08.632Z,24.84
2023-05-03T16:52:40.698Z,23.25
2023-05-03T16:55:09.696Z,24.08
2023-05-03T16:57:37.805Z,24.47
2023-05-03T17:00:09.708Z,22.04
2023-05-03T17:02:38.202Z,22.31
2023-05-03T17:05:07.758Z,24.48
2023-05-03T17:07:36.966Z,26.25
2023-05-03T17:10:07.553Z,27.89
2023-05-03T17:12:35.974Z,30.12
2023-05-03T17:15:04.061Z,33.11
2023-05-03T17:17:32.632Z,36.75
2023-05-03T17:20:00.659Z,32.42
2023-05-03T17:22:28.824Z,31.78
2023-05-03T17:24:58.237Z,35.43
2023-05-03T17:27:27.901Z,37.85
2023-05-03T17:29:57.439Z,33.62
2023-05-03T17:32:25.940Z,36.36
2023-05-03T17:34:53.649Z,33.48
2023-05-03T17:37:23.670Z,37.62
2023-05-03T17:39:51.543Z,36.73
2023-05-03T17:42:20.890Z,34.10
2023-05-03T17:44:51.902Z,37.91
2023-05-03T17:47:21.117Z,39.67
2023-05-03T17:49:49.426Z,41.26
2023-05-03T17:52:17.794Z,44.85
2023-05-03T17:54:46.144Z,45.29
2023-05-03T17:57:14.610Z,45.91
2023-05-03T17:59:42.386Z,43.54
2023-05-03T18:02:13.701Z,42.71
2023-05-03T18:04:41.643Z,43.38
2023-05-03T18:07:09.760Z,45.99
2023-05-03T18:09:38.132Z,45.58
2023-05-03T18:12:06.499Z,45.81
2023-05-03T18:14:35.944Z,47.50
2023-05-03T18:17:03.998Z,48.97
2023-05-03T18:19:33.169Z,50.24
2023-05-03T18:22:01.605Z,51.03
2023-05-03T18:24:29.378Z,53.55
2023-05-03T18:26:58.707Z,53.44
2023-05-03T18:29:26.493Z,53.82
2023-05-03T18:31:54.982Z,55.45
2023-05-03T18:34:22.852Z,55.26
2023-05-03T18:36:52.329Z,53.53
2023-05-03T18:39:20.428Z,55.92
2023-05-03T18:41:48.099Z,56.79
2023-05-03T18:44:16.100Z,56.44
2023-05-03T18:46:44.324Z,59.58
2023-05-03T18:49:12.829Z,62.20
2023-05-03T18:51:40.964Z,58.35
2023-05-03T18:54:10.499Z,60.25
2023-05-03T18:56:38.234Z,60.12
2023-05-03T18:59:06.635Z,61.83
2023-05-03T19:01:34.570Z,61.22
2023-05-03T19:04:04.683Z,63.37
2023-05-03T19:06:32.544Z,62.54
2023-05-03T19:09:00.421Z,61.86
2023-05-03T19:11:29.493Z,62.85
2023-05-03T19:13:57.325Z,63.30
2023-05-03T19:16:25.080Z,63.36
2023-05-03T19:18:52.954Z,63.58
2023-05-03T19:21:21.378Z,64.09
2023-05-03T19:23:49.041Z,63.76
2023-05-03T19:26:17.093Z,62.41
2023-05-03T19:28:46.712Z,63.42
2023-05-03T19:31:14.577Z,62.49
2023-05-03T19:33:42.353Z,62.38
2023-05-03T19:36:13.786Z,62.82
2023-05-03T19:38:41.574Z,62.09
2023-05-03T19:41:12.239Z,60.27
2023-05-03T19:43:41.181Z,60.46
2023-05-03T19:46:10.554Z,59.37
2023-05-03T19:48:38.835Z,54.83
2023-05-03T19:51:06.758Z,54.91
2023-05-03T19:53:34.912Z,54.58
2023-05-03T19:56:03.853Z,54.59
2023-05-03T19:58:32.324Z,54.64
2023-05-03T20:01:00.472Z,53.92
2023-05-03T20:03:29.984Z,52.74
2023-05-03T20:05:59.011Z,50.45
2023-05-03T20:08:27.075Z,49.23
2023-05-03T20:10:56.510Z,48.84
2023-05-03T20:13:26.173Z,49.41
2023-05-03T20:15:54.308Z,51.31
2023-05-03T20:18:22.156Z,50.23
2023-05-03T20:20:51.514Z,51.07
2023-05-03T20:23:19.453Z,51.22
2023-05-03T20:25:47.336Z,48.97
2023-05-03T20:28:15.269Z,49.66
2023-05-03T20:30:43.006Z,49.33
2023-05-03T20:33:10.905Z,48.74
2023-05-03T20:35:38.946Z,48.23
2023-05-03T20:38:08.206Z,49.02
2023-05-03T20:40:35.897Z,49.08
2023-05-03T20:43:04.394Z,47.64
2023-05-03T20:45:32.830Z,48.69
2023-05-03T20:48:00.698Z,49.32
2023-05-03T20:50:28.317Z,47.93
2023-05-03T20:52:56.864Z,47.69
2023-05-03T20:55:25.922Z,47.57
2023-05-03T20:57:53.821Z,47.62
2023-05-03T21:00:22.372Z,47.54
2023-05-03T21:02:53.369Z,49.39
2023-05-03T21:05:22.212Z,47.71
2023-05-03T21:07:50.088Z,47.58
2023-05-03T21:10:18.265Z,47.83
2023-05-03T21:12:47.634Z,47.51
2023-05-03T21:15:15.928Z,48.68
2023-05-03T21:17:43.588Z,49.96
2023-05-03T21:20:12.231Z,49.26
2023-05-03T21:22:39.925Z,49.97
2023-05-03T21:25:08.877Z,49.56
2023-05-03T21:27:37.047Z,49.71
2023-05-03T21:30:07.687Z,49.07
2023-05-03T21:32:35.519Z,49.17
2023-05-03T21:35:03.664Z,50.16
2023-05-03T21:37:31.395Z,50.90
2023-05-03T21:40:02.523Z,50.49
2023-05-03T21:42:30.788Z,51.23
2023-05-03T21:44:59.314Z,50.80
2023-05-03T21:47:28.499Z,50.14
2023-05-03T21:49:56.519Z,50.46
2023-05-03T21:52:24.305Z,53.17
2023-05-03T21:54:53.452Z,50.34
2023-05-03T21:57:21.971Z,51.10
2023-05-03T21:59:50.253Z,52.85
2023-05-03T22:02:18.531Z,52.50
2023-05-03T22:04:48.675Z,50.63
2023-05-03T22:07:16.861Z,49.59
2023-05-03T22:09:46.959Z,50.15
2023-05-03T22:12:23.372Z,51.25
2023-05-03T22:14:52.358Z,49.19
2023-05-03T22:17:20.599Z,50.28
2023-05-03T22:19:50.464Z,51.97
2023-05-03T22:22:18.670Z,51.83
2023-05-03T22:24:46.390Z,51.38
2023-05-03T22:27:14.184Z,53.28
2023-05-03T22:29:42.738Z,53.76
2023-05-03T22:32:10.477Z,50.71
2023-05-03T22:34:38.604Z,49.51
2023-05-03T22:37:07.584Z,49.35
2023-05-03T22:39:35.703Z,50.07
2023-05-03T22:42:03.429Z,48.56
2023-05-03T22:44:33.730Z,49.79
2023-05-03T22:47:01.477Z,49.92
2023-05-03T22:49:29.490Z,49.31
2023-05-03T22:51:57.986Z,50.11
2023-05-03T22:54:27.086Z,49.18
2023-05-03T22:56:55.318Z,50.92
2023-05-03T22:59:22.962Z,51.25
2023-05-03T23:01:51.144Z,51.83
2023-05-03T23:04:18.840Z,50.48
2023-05-03T23:06:46.459Z,50.90
2023-05-03T23:09:15.349Z,50.73
2023-05-03T23:11:44.309Z,49.94
2023-05-03T23:14:12.398Z,50.17
2023-05-03T23:16:40.400Z,49.73
2023-05-03T23:19:08.186Z,49.82
2023-05-03T23:21:36.171Z,49.58
2023-05-03T23:24:03.831Z,49.96
2023-05-03T23:26:32.182Z,49.94
2023-05-03T23:29:02.218Z,49.88
2023-05-03T23:31:31.488Z,49.86
2023-05-03T23:34:00.783Z,49.62
2023-05-03T23:36:28.490Z,48.97
2023-05-03T23:38:56.791Z,48.25
2023-05-03T23:41:24.415Z,48.72
2023-05-03T23:43:52.300Z,49.51
2023-05-03T23:46:21.698Z,49.93
2023-05-03T23:48:49.431Z,49.31
2023-05-03T23:51:17.614Z,49.45
2023-05-03T23:53:45.197Z,48.67
2023-05-03T23:56:13.602Z,48.96
2023-05-03T23:58:41.352Z,49.23
